sensor_id;sensor_type;location;lat;lon;timestamp;P1;durP1;ratioP1;P2;durP2;ratioP2
59440;SDS011;45245;51.538;11.870;2022-09-03T00:02:12;1.88;;;1.20;;
59440;SDS011;45245;51.538;11.870;2022-09-03T00:12:35;1.00;;;1.00;;
59440;SDS011;45245;51.538;11.870;2022-09-03T00:15:05;1.38;;;1.27;;
59440;SDS011;45245;51.538;11.870;2022-09-03T00:17:34;1.70;;;1.40;;
59440;SDS011;45245;51.538;11.870;2022-09-03T00:20:09;1.67;;;1.52;;
59440;SDS011;45245;51.538;11.870;2022-09-03T00:22:42;1.45;;;1.30;;
59440;SDS011;45245;51.538;11.870;2022-09-03T00:25:14;1.40;;;1.30;;
59440;SDS011;45245;51.538;11.870;2022-09-03T00:27:43;1.75;;;1.30;;
59440;SDS011;45245;51.538;11.870;2022-09-03T00:30:13;1.63;;;1.35;;
59440;SDS011;45245;51.538;11.870;2022-09-03T00:33:02;4.82;;;1.30;;
59440;SDS011;45245;51.538;11.870;2022-09-03T00:35:36;1.40;;;1.30;;
59440;SDS011;45245;51.538;11.870;2022-09-03T00:38:07;1.00;;;1.00;;
59440;SDS011;45245;51.538;11.870;2022-09-03T00:44:09;1.05;;;1.05;;
59440;SDS011;45245;51.538;11.870;2022-09-03T00:50:01;1.42;;;1.30;;
59440;SDS011;45245;51.538;11.870;2022-09-03T00:55:34;1.30;;;1.20;;
59440;SDS011;45245;51.538;11.870;2022-09-03T01:00:49;1.52;;;1.40;;
59440;SDS011;45245;51.538;11.870;2022-09-03T01:06:07;1.63;;;1.52;;
59440;SDS011;45245;51.538;11.870;2022-09-03T01:14:16;1.30;;;1.20;;
59440;SDS011;45245;51.538;11.870;2022-09-03T01:17:00;1.83;;;1.40;;
59440;SDS011;45245;51.538;11.870;2022-09-03T01:37:11;2.28;;;1.38;;
59440;SDS011;45245;51.538;11.870;2022-09-03T01:42:22;4.10;;;1.52;;
59440;SDS011;45245;51.538;11.870;2022-09-03T01:50:08;1.50;;;1.40;;
59440;SDS011;45245;51.538;11.870;2022-09-03T01:52:45;1.63;;;1.52;;
59440;SDS011;45245;51.538;11.870;2022-09-03T01:58:28;2.00;;;1.70;;
59440;SDS011;45245;51.538;11.870;2022-09-03T02:01:02;1.30;;;1.20;;
59440;SDS011;45245;51.538;11.870;2022-09-03T02:03:32;1.73;;;1.60;;
59440;SDS011;45245;51.538;11.870;2022-09-03T02:06:00;1.55;;;1.38;;
59440;SDS011;45245;51.538;11.870;2022-09-03T02:08:25;1.63;;;1.52;;
59440;SDS011;45245;51.538;11.870;2022-09-03T02:10:51;1.40;;;1.30;;
59440;SDS011;45245;51.538;11.870;2022-09-03T02:15:51;1.45;;;1.35;;
59440;SDS011;45245;51.538;11.870;2022-09-03T02:18:19;1.70;;;1.60;;
59440;SDS011;45245;51.538;11.870;2022-09-03T02:20:47;2.80;;;1.50;;
59440;SDS011;45245;51.538;11.870;2022-09-03T02:23:13;1.40;;;1.30;;
59440;SDS011;45245;51.538;11.870;2022-09-03T02:25:40;1.85;;;1.75;;
59440;SDS011;45245;51.538;11.870;2022-09-03T02:28:09;1.50;;;1.40;;
59440;SDS011;45245;51.538;11.870;2022-09-03T02:30:34;1.90;;;1.67;;
59440;SDS011;45245;51.538;11.870;2022-09-03T02:32:59;1.75;;;1.65;;
59440;SDS011;45245;51.538;11.870;2022-09-03T02:35:25;2.88;;;1.60;;
59440;SDS011;45245;51.538;11.870;2022-09-03T02:37:51;2.58;;;1.45;;
59440;SDS011;45245;51.538;11.870;2022-09-03T02:40:16;1.60;;;1.50;;
59440;SDS011;45245;51.538;11.870;2022-09-03T02:42:42;5.32;;;1.77;;
59440;SDS011;45245;51.538;11.870;2022-09-03T02:45:26;1.50;;;1.40;;
59440;SDS011;45245;51.538;11.870;2022-09-03T02:47:54;2.45;;;1.42;;
59440;SDS011;45245;51.538;11.870;2022-09-03T02:50:21;3.70;;;1.50;;
59440;SDS011;45245;51.538;11.870;2022-09-03T02:52:46;1.52;;;1.42;;
59440;SDS011;45245;51.538;11.870;2022-09-03T02:55:11;2.60;;;1.75;;
59440;SDS011;45245;51.538;11.870;2022-09-03T02:57:37;1.67;;;1.50;;
59440;SDS011;45245;51.538;11.870;2022-09-03T03:00:02;1.83;;;1.70;;
59440;SDS011;45245;51.538;11.870;2022-09-03T03:02:28;1.52;;;1.40;;
59440;SDS011;45245;51.538;11.870;2022-09-03T03:04:53;1.70;;;1.60;;
59440;SDS011;45245;51.538;11.870;2022-09-03T03:07:19;1.65;;;1.55;;
59440;SDS011;45245;51.538;11.870;2022-09-03T03:09:44;3.47;;;1.50;;
59440;SDS011;45245;51.538;11.870;2022-09-03T03:12:10;2.10;;;1.85;;
59440;SDS011;45245;51.538;11.870;2022-09-03T03:14:35;1.77;;;1.67;;
59440;SDS011;45245;51.538;11.870;2022-09-03T03:17:01;2.70;;;1.38;;
59440;SDS011;45245;51.538;11.870;2022-09-03T03:19:26;1.65;;;1.55;;
59440;SDS011;45245;51.538;11.870;2022-09-03T03:21:51;3.03;;;1.50;;
59440;SDS011;45245;51.538;11.870;2022-09-03T03:24:17;1.77;;;1.63;;
59440;SDS011;45245;51.538;11.870;2022-09-03T03:26:42;1.70;;;1.60;;
59440;SDS011;45245;51.538;11.870;2022-09-03T03:29:07;2.35;;;1.65;;
59440;SDS011;45245;51.538;11.870;2022-09-03T03:31:38;1.70;;;1.60;;
59440;SDS011;45245;51.538;11.870;2022-09-03T03:34:04;1.50;;;1.40;;
59440;SDS011;45245;51.538;11.870;2022-09-03T03:36:30;1.48;;;1.38;;
59440;SDS011;45245;51.538;11.870;2022-09-03T03:38:57;1.60;;;1.50;;
59440;SDS011;45245;51.538;11.870;2022-09-03T03:41:41;2.30;;;1.30;;
59440;SDS011;45245;51.538;11.870;2022-09-03T03:44:07;1.50;;;1.40;;
59440;SDS011;45245;51.538;11.870;2022-09-03T03:46:34;2.25;;;2.15;;
59440;SDS011;45245;51.538;11.870;2022-09-03T03:49:00;1.88;;;1.67;;
59440;SDS011;45245;51.538;11.870;2022-09-03T03:51:26;1.90;;;1.77;;
59440;SDS011;45245;51.538;11.870;2022-09-03T03:53:52;2.22;;;1.60;;
59440;SDS011;45245;51.538;11.870;2022-09-03T03:56:19;1.92;;;1.70;;
59440;SDS011;45245;51.538;11.870;2022-09-03T03:58:45;1.88;;;1.50;;
59440;SDS011;45245;51.538;11.870;2022-09-03T04:03:38;3.30;;;1.42;;
59440;SDS011;45245;51.538;11.870;2022-09-03T04:06:04;2.00;;;1.83;;
59440;SDS011;45245;51.538;11.870;2022-09-03T04:08:30;1.67;;;1.58;;
59440;SDS011;45245;51.538;11.870;2022-09-03T04:11:00;2.60;;;1.92;;
59440;SDS011;45245;51.538;11.870;2022-09-03T04:13:32;2.08;;;1.50;;
59440;SDS011;45245;51.538;11.870;2022-09-03T04:16:02;1.92;;;1.83;;
59440;SDS011;45245;51.538;11.870;2022-09-03T04:18:29;2.85;;;1.63;;
59440;SDS011;45245;51.538;11.870;2022-09-03T04:20:59;1.80;;;1.67;;
59440;SDS011;45245;51.538;11.870;2022-09-03T04:23:28;1.60;;;1.50;;
59440;SDS011;45245;51.538;11.870;2022-09-03T04:25:53;2.22;;;1.38;;
59440;SDS011;45245;51.538;11.870;2022-09-03T04:28:18;2.05;;;1.42;;
59440;SDS011;45245;51.538;11.870;2022-09-03T04:30:43;2.35;;;1.80;;
59440;SDS011;45245;51.538;11.870;2022-09-03T04:33:09;1.70;;;1.60;;
59440;SDS011;45245;51.538;11.870;2022-09-03T04:35:34;1.70;;;1.60;;
59440;SDS011;45245;51.538;11.870;2022-09-03T04:37:59;2.03;;;1.75;;
59440;SDS011;45245;51.538;11.870;2022-09-03T04:40:25;1.73;;;1.63;;
59440;SDS011;45245;51.538;11.870;2022-09-03T04:42:55;2.30;;;1.75;;
59440;SDS011;45245;51.538;11.870;2022-09-03T04:45:21;3.55;;;1.90;;
59440;SDS011;45245;51.538;11.870;2022-09-03T04:47:57;1.95;;;1.58;;
59440;SDS011;45245;51.538;11.870;2022-09-03T04:50:23;1.90;;;1.73;;
59440;SDS011;45245;51.538;11.870;2022-09-03T04:52:49;2.30;;;1.80;;
59440;SDS011;45245;51.538;11.870;2022-09-03T04:55:14;1.77;;;1.67;;
59440;SDS011;45245;51.538;11.870;2022-09-03T04:57:40;2.20;;;1.88;;
59440;SDS011;45245;51.538;11.870;2022-09-03T05:00:07;2.58;;;1.73;;
59440;SDS011;45245;51.538;11.870;2022-09-03T05:02:35;2.55;;;2.00;;
59440;SDS011;45245;51.538;11.870;2022-09-03T05:05:00;1.60;;;1.50;;
59440;SDS011;45245;51.538;11.870;2022-09-03T05:07:26;2.13;;;1.80;;
59440;SDS011;45245;51.538;11.870;2022-09-03T05:10:02;2.15;;;1.88;;
59440;SDS011;45245;51.538;11.870;2022-09-03T05:12:31;1.95;;;1.85;;
59440;SDS011;45245;51.538;11.870;2022-09-03T05:14:57;1.92;;;1.50;;
59440;SDS011;45245;51.538;11.870;2022-09-03T05:17:23;5.22;;;1.65;;
59440;SDS011;45245;51.538;11.870;2022-09-03T05:19:49;2.08;;;1.63;;
59440;SDS011;45245;51.538;11.870;2022-09-03T05:22:14;2.22;;;2.08;;
59440;SDS011;45245;51.538;11.870;2022-09-03T05:24:45;2.88;;;1.60;;
59440;SDS011;45245;51.538;11.870;2022-09-03T05:27:10;3.00;;;1.80;;
59440;SDS011;45245;51.538;11.870;2022-09-03T05:29:35;1.85;;;1.75;;
59440;SDS011;45245;51.538;11.870;2022-09-03T05:32:01;1.90;;;1.80;;
59440;SDS011;45245;51.538;11.870;2022-09-03T05:34:27;2.20;;;2.00;;
59440;SDS011;45245;51.538;11.870;2022-09-03T05:36:53;1.95;;;1.80;;
59440;SDS011;45245;51.538;11.870;2022-09-03T05:39:19;2.25;;;2.05;;
59440;SDS011;45245;51.538;11.870;2022-09-03T05:41:44;1.77;;;1.67;;
59440;SDS011;45245;51.538;11.870;2022-09-03T05:44:09;2.97;;;2.13;;
59440;SDS011;45245;51.538;11.870;2022-09-03T05:46:35;2.50;;;1.98;;
59440;SDS011;45245;51.538;11.870;2022-09-03T05:49:05;2.17;;;1.67;;
59440;SDS011;45245;51.538;11.870;2022-09-03T05:51:32;2.22;;;1.90;;
59440;SDS011;45245;51.538;11.870;2022-09-03T05:53:59;3.10;;;2.28;;
59440;SDS011;45245;51.538;11.870;2022-09-03T05:56:25;1.92;;;1.60;;
59440;SDS011;45245;51.538;11.870;2022-09-03T05:58:52;2.00;;;1.80;;
59440;SDS011;45245;51.538;11.870;2022-09-03T06:01:26;1.80;;;1.70;;
59440;SDS011;45245;51.538;11.870;2022-09-03T06:03:54;2.53;;;1.85;;
59440;SDS011;45245;51.538;11.870;2022-09-03T06:06:20;3.28;;;2.25;;
59440;SDS011;45245;51.538;11.870;2022-09-03T06:08:49;4.82;;;2.50;;
59440;SDS011;45245;51.538;11.870;2022-09-03T06:11:19;2.10;;;1.90;;
59440;SDS011;45245;51.538;11.870;2022-09-03T06:13:45;2.10;;;1.98;;
59440;SDS011;45245;51.538;11.870;2022-09-03T06:16:11;2.10;;;1.90;;
59440;SDS011;45245;51.538;11.870;2022-09-03T06:18:37;1.75;;;1.65;;
59440;SDS011;45245;51.538;11.870;2022-09-03T06:21:03;2.35;;;2.10;;
59440;SDS011;45245;51.538;11.870;2022-09-03T06:23:30;2.00;;;1.80;;
59440;SDS011;45245;51.538;11.870;2022-09-03T06:25:59;2.75;;;2.22;;
59440;SDS011;45245;51.538;11.870;2022-09-03T06:28:26;2.35;;;1.90;;
59440;SDS011;45245;51.538;11.870;2022-09-03T06:30:52;3.58;;;2.22;;
59440;SDS011;45245;51.538;11.870;2022-09-03T06:33:21;2.42;;;2.10;;
59440;SDS011;45245;51.538;11.870;2022-09-03T06:35:51;1.95;;;1.80;;
59440;SDS011;45245;51.538;11.870;2022-09-03T06:38:18;2.60;;;2.20;;
59440;SDS011;45245;51.538;11.870;2022-09-03T06:40:50;4.25;;;2.20;;
59440;SDS011;45245;51.538;11.870;2022-09-03T06:45:41;4.03;;;1.80;;
59440;SDS011;45245;51.538;11.870;2022-09-03T06:48:07;1.67;;;1.58;;
59440;SDS011;45245;51.538;11.870;2022-09-03T06:50:32;2.40;;;2.20;;
59440;SDS011;45245;51.538;11.870;2022-09-03T06:52:57;1.92;;;1.75;;
59440;SDS011;45245;51.538;11.870;2022-09-03T06:55:23;1.92;;;1.83;;
59440;SDS011;45245;51.538;11.870;2022-09-03T06:57:48;2.25;;;1.90;;
59440;SDS011;45245;51.538;11.870;2022-09-03T07:00:15;3.15;;;2.20;;
59440;SDS011;45245;51.538;11.870;2022-09-03T07:02:40;2.33;;;2.13;;
59440;SDS011;45245;51.538;11.870;2022-09-03T07:05:08;2.50;;;2.30;;
59440;SDS011;45245;51.538;11.870;2022-09-03T07:07:33;2.90;;;1.88;;
59440;SDS011;45245;51.538;11.870;2022-09-03T07:09:59;3.08;;;2.17;;
59440;SDS011;45245;51.538;11.870;2022-09-03T07:12:25;2.35;;;2.15;;
59440;SDS011;45245;51.538;11.870;2022-09-03T07:14:51;2.10;;;1.90;;
59440;SDS011;45245;51.538;11.870;2022-09-03T07:17:16;2.40;;;2.20;;
59440;SDS011;45245;51.538;11.870;2022-09-03T07:19:41;5.18;;;2.53;;
59440;SDS011;45245;51.538;11.870;2022-09-03T07:22:07;2.38;;;1.83;;
59440;SDS011;45245;51.538;11.870;2022-09-03T07:24:33;2.45;;;2.00;;
59440;SDS011;45245;51.538;11.870;2022-09-03T07:26:59;4.03;;;2.33;;
59440;SDS011;45245;51.538;11.870;2022-09-03T07:29:25;2.20;;;1.73;;
59440;SDS011;45245;51.538;11.870;2022-09-03T07:31:51;2.40;;;1.98;;
59440;SDS011;45245;51.538;11.870;2022-09-03T07:34:17;2.00;;;1.80;;
59440;SDS011;45245;51.538;11.870;2022-09-03T07:36:43;2.38;;;2.13;;
59440;SDS011;45245;51.538;11.870;2022-09-03T07:39:11;1.92;;;1.80;;
59440;SDS011;45245;51.538;11.870;2022-09-03T07:41:37;2.05;;;1.85;;
59440;SDS011;45245;51.538;11.870;2022-09-03T07:44:03;3.45;;;1.98;;
59440;SDS011;45245;51.538;11.870;2022-09-03T07:46:32;2.92;;;2.17;;
59440;SDS011;45245;51.538;11.870;2022-09-03T07:49:00;2.55;;;2.05;;
59440;SDS011;45245;51.538;11.870;2022-09-03T07:51:27;2.00;;;1.88;;
59440;SDS011;45245;51.538;11.870;2022-09-03T07:53:55;3.72;;;2.20;;
59440;SDS011;45245;51.538;11.870;2022-09-03T07:56:22;1.73;;;1.63;;
59440;SDS011;45245;51.538;11.870;2022-09-03T07:58:49;1.95;;;1.75;;
59440;SDS011;45245;51.538;11.870;2022-09-03T08:01:16;2.55;;;2.22;;
59440;SDS011;45245;51.538;11.870;2022-09-03T08:03:43;2.33;;;1.88;;
59440;SDS011;45245;51.538;11.870;2022-09-03T08:06:10;2.25;;;2.00;;
59440;SDS011;45245;51.538;11.870;2022-09-03T08:08:36;2.15;;;1.80;;
59440;SDS011;45245;51.538;11.870;2022-09-03T08:11:09;1.50;;;1.40;;
59440;SDS011;45245;51.538;11.870;2022-09-03T08:13:40;2.70;;;2.00;;
59440;SDS011;45245;51.538;11.870;2022-09-03T08:16:07;2.67;;;1.95;;
59440;SDS011;45245;51.538;11.870;2022-09-03T08:18:33;6.97;;;2.55;;
59440;SDS011;45245;51.538;11.870;2022-09-03T08:21:02;2.38;;;1.80;;
59440;SDS011;45245;51.538;11.870;2022-09-03T08:23:29;1.70;;;1.60;;
59440;SDS011;45245;51.538;11.870;2022-09-03T08:26:00;1.98;;;1.85;;
59440;SDS011;45245;51.538;11.870;2022-09-03T08:28:26;4.03;;;2.00;;
59440;SDS011;45245;51.538;11.870;2022-09-03T08:30:52;1.90;;;1.80;;
59440;SDS011;45245;51.538;11.870;2022-09-03T08:33:17;2.70;;;1.65;;
59440;SDS011;45245;51.538;11.870;2022-09-03T08:36:01;2.20;;;2.00;;
59440;SDS011;45245;51.538;11.870;2022-09-03T08:38:31;2.17;;;1.90;;
59440;SDS011;45245;51.538;11.870;2022-09-03T08:41:03;2.55;;;1.90;;
59440;SDS011;45245;51.538;11.870;2022-09-03T08:43:32;2.13;;;1.60;;
59440;SDS011;45245;51.538;11.870;2022-09-03T08:46:02;6.45;;;1.95;;
59440;SDS011;45245;51.538;11.870;2022-09-03T08:48:27;3.38;;;1.88;;
59440;SDS011;45245;51.538;11.870;2022-09-03T08:50:53;3.45;;;1.45;;
59440;SDS011;45245;51.538;11.870;2022-09-03T08:53:40;3.13;;;2.05;;
59440;SDS011;45245;51.538;11.870;2022-09-03T08:56:10;2.88;;;1.70;;
59440;SDS011;45245;51.538;11.870;2022-09-03T08:58:37;2.28;;;1.70;;
59440;SDS011;45245;51.538;11.870;2022-09-03T09:01:09;1.42;;;1.33;;
59440;SDS011;45245;51.538;11.870;2022-09-03T09:06:16;1.70;;;1.60;;
59440;SDS011;45245;51.538;11.870;2022-09-03T09:11:29;2.05;;;1.77;;
59440;SDS011;45245;51.538;11.870;2022-09-03T09:14:02;5.20;;;1.60;;
59440;SDS011;45245;51.538;11.870;2022-09-03T09:16:34;1.63;;;1.50;;
59440;SDS011;45245;51.538;11.870;2022-09-03T09:21:58;2.40;;;1.77;;
59440;SDS011;45245;51.538;11.870;2022-09-03T09:24:26;1.80;;;1.53;;
59440;SDS011;45245;51.538;11.870;2022-09-03T09:26:59;2.70;;;1.80;;
59440;SDS011;45245;51.538;11.870;2022-09-03T09:31:52;2.15;;;1.45;;
59440;SDS011;45245;51.538;11.870;2022-09-03T09:34:18;1.75;;;1.38;;
59440;SDS011;45245;51.538;11.870;2022-09-03T09:36:45;3.38;;;1.67;;
59440;SDS011;45245;51.538;11.870;2022-09-03T09:39:15;2.45;;;1.35;;
59440;SDS011;45245;51.538;11.870;2022-09-03T09:41:41;1.65;;;1.50;;
59440;SDS011;45245;51.538;11.870;2022-09-03T09:44:07;2.38;;;1.33;;
59440;SDS011;45245;51.538;11.870;2022-09-03T09:46:43;1.80;;;1.65;;
59440;SDS011;45245;51.538;11.870;2022-09-03T09:52:14;1.67;;;1.52;;
59440;SDS011;45245;51.538;11.870;2022-09-03T09:54:41;2.55;;;1.60;;
59440;SDS011;45245;51.538;11.870;2022-09-03T09:57:13;1.73;;;1.55;;
59440;SDS011;45245;51.538;11.870;2022-09-03T09:59:42;1.73;;;1.63;;
59440;SDS011;45245;51.538;11.870;2022-09-03T10:02:09;2.25;;;1.67;;
59440;SDS011;45245;51.538;11.870;2022-09-03T10:04:36;2.22;;;1.48;;
59440;SDS011;45245;51.538;11.870;2022-09-03T10:07:04;1.67;;;1.58;;
59440;SDS011;45245;51.538;11.870;2022-09-03T10:09:43;3.38;;;1.70;;
59440;SDS011;45245;51.538;11.870;2022-09-03T10:12:13;3.28;;;1.90;;
59440;SDS011;45245;51.538;11.870;2022-09-03T10:20:29;1.52;;;1.42;;
59440;SDS011;45245;51.538;11.870;2022-09-03T10:23:04;1.85;;;1.70;;
59440;SDS011;45245;51.538;11.870;2022-09-03T10:25:38;1.83;;;1.73;;
59440;SDS011;45245;51.538;11.870;2022-09-03T10:28:08;2.15;;;1.65;;
59440;SDS011;45245;51.538;11.870;2022-09-03T10:30:38;2.67;;;1.88;;
59440;SDS011;45245;51.538;11.870;2022-09-03T10:33:30;2.92;;;1.60;;
59440;SDS011;45245;51.538;11.870;2022-09-03T10:36:19;1.65;;;1.50;;
59440;SDS011;45245;51.538;11.870;2022-09-03T10:38:49;1.63;;;1.52;;
59440;SDS011;45245;51.538;11.870;2022-09-03T10:44:23;2.70;;;1.80;;
59440;SDS011;45245;51.538;11.870;2022-09-03T10:46:56;2.00;;;1.38;;
59440;SDS011;45245;51.538;11.870;2022-09-03T10:49:30;2.13;;;1.30;;
59440;SDS011;45245;51.538;11.870;2022-09-03T10:52:08;2.40;;;1.55;;
59440;SDS011;45245;51.538;11.870;2022-09-03T11:00:12;1.67;;;1.58;;
59440;SDS011;45245;51.538;11.870;2022-09-03T11:08:00;3.33;;;1.67;;
59440;SDS011;45245;51.538;11.870;2022-09-03T11:10:31;1.65;;;1.40;;
59440;SDS011;45245;51.538;11.870;2022-09-03T11:15:35;4.07;;;1.77;;
59440;SDS011;45245;51.538;11.870;2022-09-03T11:18:13;2.97;;;1.70;;
59440;SDS011;45245;51.538;11.870;2022-09-03T11:20:42;1.75;;;1.60;;
59440;SDS011;45245;51.538;11.870;2022-09-03T11:23:08;2.15;;;1.80;;
59440;SDS011;45245;51.538;11.870;2022-09-03T11:25:36;2.50;;;1.80;;
59440;SDS011;45245;51.538;11.870;2022-09-03T11:28:19;2.55;;;1.80;;
59440;SDS011;45245;51.538;11.870;2022-09-03T11:33:44;3.67;;;1.60;;
59440;SDS011;45245;51.538;11.870;2022-09-03T11:36:11;3.65;;;1.63;;
59440;SDS011;45245;51.538;11.870;2022-09-03T11:38:37;1.63;;;1.52;;
59440;SDS011;45245;51.538;11.870;2022-09-03T11:44:09;3.50;;;1.90;;
59440;SDS011;45245;51.538;11.870;2022-09-03T11:46:54;1.90;;;1.80;;
59440;SDS011;45245;51.538;11.870;2022-09-03T11:49:27;1.42;;;1.33;;
59440;SDS011;45245;51.538;11.870;2022-09-03T11:52:03;1.70;;;1.55;;
59440;SDS011;45245;51.538;11.870;2022-09-03T11:54:41;1.52;;;1.42;;
59440;SDS011;45245;51.538;11.870;2022-09-03T11:57:10;2.08;;;1.88;;
59440;SDS011;45245;51.538;11.870;2022-09-03T11:59:37;4.05;;;1.55;;
59440;SDS011;45245;51.538;11.870;2022-09-03T12:02:09;1.48;;;1.27;;
59440;SDS011;45245;51.538;11.870;2022-09-03T12:04:51;1.92;;;1.60;;
59440;SDS011;45245;51.538;11.870;2022-09-03T12:07:45;2.60;;;1.75;;
59440;SDS011;45245;51.538;11.870;2022-09-03T12:18:25;2.05;;;1.75;;
59440;SDS011;45245;51.538;11.870;2022-09-03T12:23:27;1.40;;;1.30;;
59440;SDS011;45245;51.538;11.870;2022-09-03T12:26:05;3.65;;;2.13;;
59440;SDS011;45245;51.538;11.870;2022-09-03T12:28:34;1.58;;;1.45;;
59440;SDS011;45245;51.538;11.870;2022-09-03T12:31:06;1.70;;;1.60;;
59440;SDS011;45245;51.538;11.870;2022-09-03T12:33:45;2.25;;;1.65;;
59440;SDS011;45245;51.538;11.870;2022-09-03T12:36:12;1.90;;;1.70;;
59440;SDS011;45245;51.538;11.870;2022-09-03T12:38:37;2.05;;;1.58;;
59440;SDS011;45245;51.538;11.870;2022-09-03T12:41:03;1.75;;;1.45;;
59440;SDS011;45245;51.538;11.870;2022-09-03T12:43:28;1.33;;;1.23;;
59440;SDS011;45245;51.538;11.870;2022-09-03T12:45:54;2.60;;;1.42;;
59440;SDS011;45245;51.538;11.870;2022-09-03T12:48:20;1.63;;;1.52;;
59440;SDS011;45245;51.538;11.870;2022-09-03T12:50:46;2.58;;;1.70;;
59440;SDS011;45245;51.538;11.870;2022-09-03T12:53:20;2.95;;;1.70;;
59440;SDS011;45245;51.538;11.870;2022-09-03T12:55:52;2.08;;;1.45;;
59440;SDS011;45245;51.538;11.870;2022-09-03T12:58:31;1.70;;;1.60;;
59440;SDS011;45245;51.538;11.870;2022-09-03T13:01:15;2.17;;;1.60;;
59440;SDS011;45245;51.538;11.870;2022-09-03T13:03:47;2.15;;;1.75;;
59440;SDS011;45245;51.538;11.870;2022-09-03T13:06:23;2.20;;;1.65;;
59440;SDS011;45245;51.538;11.870;2022-09-03T13:08:54;1.70;;;1.60;;
59440;SDS011;45245;51.538;11.870;2022-09-03T13:11:24;2.58;;;1.60;;
59440;SDS011;45245;51.538;11.870;2022-09-03T13:13:54;1.65;;;1.40;;
59440;SDS011;45245;51.538;11.870;2022-09-03T13:30:12;2.30;;;1.67;;
59440;SDS011;45245;51.538;11.870;2022-09-03T13:38:36;1.42;;;1.33;;
59440;SDS011;45245;51.538;11.870;2022-09-03T13:43:48;1.40;;;1.30;;
59440;SDS011;45245;51.538;11.870;2022-09-03T13:46:23;1.60;;;1.50;;
59440;SDS011;45245;51.538;11.870;2022-09-03T13:48:56;1.75;;;1.65;;
59440;SDS011;45245;51.538;11.870;2022-09-03T13:51:54;2.92;;;1.80;;
59440;SDS011;45245;51.538;11.870;2022-09-03T14:02:30;1.40;;;1.30;;
59440;SDS011;45245;51.538;11.870;2022-09-03T14:07:46;1.85;;;1.75;;
59440;SDS011;45245;51.538;11.870;2022-09-03T14:12:41;1.57;;;1.47;;
59440;SDS011;45245;51.538;11.870;2022-09-03T14:15:19;1.83;;;1.63;;
59440;SDS011;45245;51.538;11.870;2022-09-03T14:20:17;1.67;;;1.57;;
59440;SDS011;45245;51.538;11.870;2022-09-03T14:25:29;1.55;;;1.25;;
59440;SDS011;45245;51.538;11.870;2022-09-03T14:31:37;1.77;;;1.60;;
59440;SDS011;45245;51.538;11.870;2022-09-03T14:37:08;1.92;;;1.67;;
59440;SDS011;45245;51.538;11.870;2022-09-03T14:42:38;1.70;;;1.58;;
59440;SDS011;45245;51.538;11.870;2022-09-03T14:53:49;1.75;;;1.52;;
59440;SDS011;45245;51.538;11.870;2022-09-03T14:59:25;4.13;;;1.77;;
59440;SDS011;45245;51.538;11.870;2022-09-03T15:05:02;1.92;;;1.65;;
59440;SDS011;45245;51.538;11.870;2022-09-03T15:10:23;2.03;;;1.83;;
59440;SDS011;45245;51.538;11.870;2022-09-03T15:13:09;2.33;;;1.73;;
59440;SDS011;45245;51.538;11.870;2022-09-03T15:26:05;3.20;;;1.77;;
59440;SDS011;45245;51.538;11.870;2022-09-03T15:33:57;3.55;;;2.03;;
59440;SDS011;45245;51.538;11.870;2022-09-03T15:36:26;1.85;;;1.75;;
59440;SDS011;45245;51.538;11.870;2022-09-03T15:39:00;2.83;;;1.45;;
59440;SDS011;45245;51.538;11.870;2022-09-03T15:44:14;1.83;;;1.73;;
59440;SDS011;45245;51.538;11.870;2022-09-03T15:46:50;1.60;;;1.50;;
59440;SDS011;45245;51.538;11.870;2022-09-03T15:52:25;2.63;;;1.30;;
59440;SDS011;45245;51.538;11.870;2022-09-03T15:58:04;1.42;;;1.33;;
59440;SDS011;45245;51.538;11.870;2022-09-03T16:00:37;2.28;;;1.42;;
59440;SDS011;45245;51.538;11.870;2022-09-03T16:03:07;1.55;;;1.45;;
59440;SDS011;45245;51.538;11.870;2022-09-03T16:05:36;1.60;;;1.50;;
59440;SDS011;45245;51.538;11.870;2022-09-03T16:13:11;1.87;;;1.27;;
59440;SDS011;45245;51.538;11.870;2022-09-03T16:16:03;2.88;;;1.20;;
59440;SDS011;45245;51.538;11.870;2022-09-03T16:18:41;1.40;;;1.30;;
59440;SDS011;45245;51.538;11.870;2022-09-03T16:23:58;3.17;;;1.70;;
59440;SDS011;45245;51.538;11.870;2022-09-03T16:26:29;2.28;;;1.98;;
59440;SDS011;45245;51.538;11.870;2022-09-03T16:29:00;2.63;;;2.00;;
59440;SDS011;45245;51.538;11.870;2022-09-03T16:39:52;3.95;;;1.58;;
59440;SDS011;45245;51.538;11.870;2022-09-03T16:48:03;3.85;;;1.90;;
59440;SDS011;45245;51.538;11.870;2022-09-03T16:55:49;3.05;;;1.58;;
59440;SDS011;45245;51.538;11.870;2022-09-03T17:01:20;1.77;;;1.67;;
59440;SDS011;45245;51.538;11.870;2022-09-03T17:06:48;2.15;;;1.95;;
59440;SDS011;45245;51.538;11.870;2022-09-03T17:09:34;1.50;;;1.40;;
59440;SDS011;45245;51.538;11.870;2022-09-03T17:14:56;3.88;;;2.13;;
59440;SDS011;45245;51.538;11.870;2022-09-03T17:23:03;2.95;;;2.00;;
59440;SDS011;45245;51.538;11.870;2022-09-03T17:25:49;1.85;;;1.70;;
59440;SDS011;45245;51.538;11.870;2022-09-03T17:30:56;2.03;;;1.70;;
59440;SDS011;45245;51.538;11.870;2022-09-03T17:33:35;2.05;;;1.90;;
59440;SDS011;45245;51.538;11.870;2022-09-03T17:36:08;2.20;;;1.88;;
59440;SDS011;45245;51.538;11.870;2022-09-03T17:43:46;2.83;;;2.20;;
59440;SDS011;45245;51.538;11.870;2022-09-03T17:54:35;2.45;;;2.25;;
59440;SDS011;45245;51.538;11.870;2022-09-03T17:57:21;2.10;;;1.92;;
59440;SDS011;45245;51.538;11.870;2022-09-03T18:02:29;2.30;;;2.10;;
59440;SDS011;45245;51.538;11.870;2022-09-03T18:05:01;2.10;;;1.95;;
59440;SDS011;45245;51.538;11.870;2022-09-03T18:07:53;2.97;;;2.55;;
59440;SDS011;45245;51.538;11.870;2022-09-03T18:10:26;2.38;;;2.17;;
59440;SDS011;45245;51.538;11.870;2022-09-03T18:15:35;2.58;;;2.22;;
59440;SDS011;45245;51.538;11.870;2022-09-03T18:18:15;2.60;;;2.40;;
59440;SDS011;45245;51.538;11.870;2022-09-03T18:20:51;2.97;;;2.47;;
59440;SDS011;45245;51.538;11.870;2022-09-03T18:26:51;3.45;;;3.20;;
59440;SDS011;45245;51.538;11.870;2022-09-03T18:29:44;2.83;;;2.58;;
59440;SDS011;45245;51.538;11.870;2022-09-03T18:32:31;2.92;;;2.72;;
59440;SDS011;45245;51.538;11.870;2022-09-03T18:35:16;2.88;;;2.67;;
59440;SDS011;45245;51.538;11.870;2022-09-03T18:38:03;2.25;;;2.15;;
59440;SDS011;45245;51.538;11.870;2022-09-03T18:47:00;2.95;;;2.70;;
59440;SDS011;45245;51.538;11.870;2022-09-03T18:50:07;2.72;;;2.47;;
59440;SDS011;45245;51.538;11.870;2022-09-03T18:56:13;7.00;;;2.78;;
59440;SDS011;45245;51.538;11.870;2022-09-03T19:01:58;4.70;;;2.83;;
59440;SDS011;45245;51.538;11.870;2022-09-03T19:04:55;3.45;;;2.72;;
59440;SDS011;45245;51.538;11.870;2022-09-03T19:10:53;2.80;;;2.60;;
59440;SDS011;45245;51.538;11.870;2022-09-03T19:13:41;2.33;;;2.13;;
59440;SDS011;45245;51.538;11.870;2022-09-03T19:22:31;3.47;;;2.50;;
59440;SDS011;45245;51.538;11.870;2022-09-03T19:25:18;3.00;;;2.65;;
59440;SDS011;45245;51.538;11.870;2022-09-03T19:28:16;2.70;;;2.50;;
59440;SDS011;45245;51.538;11.870;2022-09-03T19:40:56;2.85;;;2.65;;
59440;SDS011;45245;51.538;11.870;2022-09-03T19:43:48;3.75;;;2.65;;
59440;SDS011;45245;51.538;11.870;2022-09-03T19:46:39;2.75;;;2.55;;
59440;SDS011;45245;51.538;11.870;2022-09-03T19:52:34;2.88;;;2.67;;
59440;SDS011;45245;51.538;11.870;2022-09-03T19:55:40;3.65;;;3.35;;
59440;SDS011;45245;51.538;11.870;2022-09-03T19:58:31;3.63;;;3.33;;
59440;SDS011;45245;51.538;11.870;2022-09-03T20:01:16;3.17;;;2.88;;
59440;SDS011;45245;51.538;11.870;2022-09-03T20:04:21;5.72;;;2.80;;
59440;SDS011;45245;51.538;11.870;2022-09-03T20:07:17;3.17;;;2.90;;
59440;SDS011;45245;51.538;11.870;2022-09-03T20:10:03;3.15;;;2.85;;